Time;durP1;ratioP1;P1;durP2;ratioP2;P2;SDS_P1;SDS_P2;PMS_P1;PMS_P2;Temp;Humidity;BMP_temperature;BMP_pressure;BME280_temperature;BME280_humidity;BME280_pressure;Samples;Min_cycle;Max_cycle;Signal;HPM_P1;HPM_P2
2023/09/29 00:03:44;;;;;;;4.93;2.97;;;21.40;76.20;;;;;;10789247;33;20362;-70
2023/09/29 00:09:47;;;;;;;5.97;4.10;;;21.30;76.30;;;;;;10789424;33;20051;-70
2023/09/29 00:15:49;;;;;;;6.53;3.80;;;21.30;76.50;;;;;;10788978;33;20024;-70
2023/09/29 00:21:51;;;;;;;4.90;3.25;;;21.20;76.50;;;;;;10790001;33;20051;-70
2023/09/29 00:27:55;;;;;;;5.55;3.33;;;21.10;76.60;;;;;;10789918;33;20016;-70
2023/09/29 00:33:57;;;;;;;4.93;3.62;;;21.10;76.70;;;;;;10788532;33;20009;-70
2023/09/29 00:40:00;;;;;;;7.62;4.57;;;21.10;76.70;;;;;;10788415;33;20012;-70
2023/09/29 00:46:06;;;;;;;5.40;3.50;;;21.00;76.70;;;;;;10789466;33;20024;-70
2023/09/29 00:52:09;;;;;;;6.85;4.12;;;20.90;76.90;;;;;;10788040;33;20489;-70
2023/09/29 00:58:15;;;;;;;4.80;3.87;;;20.80;77.00;;;;;;10789202;33;20028;-70
2023/09/29 01:04:18;;;;;;;5.10;3.58;;;20.70;77.20;;;;;;10788354;33;20016;-70
2023/09/29 01:10:20;;;;;;;4.72;4.05;;;20.70;77.30;;;;;;10788803;33;20028;-70
2023/09/29 01:16:22;;;;;;;5.30;4.10;;;20.70;77.20;;;;;;10788607;33;20039;-70
2023/09/29 01:22:31;;;;;;;4.70;3.47;;;20.60;77.20;;;;;;10787318;33;20024;-71
2023/09/29 01:28:33;;;;;;;4.90;3.53;;;20.60;77.30;;;;;;10787277;33;20004;-70
2023/09/29 01:34:36;;;;;;;6.05;3.87;;;20.50;77.40;;;;;;10798467;33;20086;-70
2023/09/29 01:40:39;;;;;;;4.87;3.58;;;20.50;77.50;;;;;;10786960;33;20047;-70
2023/09/29 01:46:41;;;;;;;4.87;3.90;;;20.40;77.60;;;;;;10786712;32;20351;-70
2023/09/29 01:52:44;;;;;;;4.53;2.90;;;20.40;77.70;;;;;;10787293;33;20433;-70
2023/09/29 01:58:47;;;;;;;4.82;3.58;;;20.30;77.70;;;;;;10783956;33;20024;-71
2023/09/29 02:05:16;;;;;;;5.20;3.58;;;20.30;77.70;;;;;;10787152;33;20039;-71
2023/09/29 02:11:18;;;;;;;7.22;4.20;;;20.20;77.80;;;;;;10786260;33;20043;-71
2023/09/29 02:17:20;;;;;;;7.25;3.55;;;20.20;77.90;;;;;;10787297;33;20024;-71
2023/09/29 02:23:22;;;;;;;4.75;2.90;;;20.20;78.00;;;;;;10786885;33;20058;-70
2023/09/29 02:29:44;;;;;;;3.97;2.97;;;20.30;77.90;;;;;;10789187;33;20322;-70
2023/09/29 02:36:34;;;;;;;4.85;3.67;;;20.20;77.90;;;;;;10792044;33;20016;-70
2023/09/29 02:42:37;;;;;;;3.87;2.83;;;20.20;77.90;;;;;;10792870;33;20020;-70
2023/09/29 02:48:39;;;;;;;4.72;3.78;;;20.00;78.10;;;;;;10791920;33;20440;-70
2023/09/29 02:54:42;;;;;;;4.18;2.78;;;20.00;78.20;;;;;;10792034;33;20375;-70
2023/09/29 03:00:45;;;;;;;6.05;4.57;;;20.00;78.10;;;;;;10791804;33;20043;-70
2023/09/29 03:06:51;;;;;;;6.25;3.28;;;20.10;78.20;;;;;;10791042;33;20028;-70
2023/09/29 03:12:56;;;;;;;5.53;3.42;;;20.00;78.20;;;;;;10804162;33;20025;-70
2023/09/29 03:18:58;;;;;;;4.95;3.60;;;20.00;78.20;;;;;;10790685;33;20050;-70
2023/09/29 03:25:00;;;;;;;3.90;2.83;;;20.00;78.30;;;;;;10791821;33;20051;-70
2023/09/29 03:31:09;;;;;;;5.55;3.58;;;20.00;78.30;;;;;;10790456;33;20080;-70
2023/09/29 03:37:12;;;;;;;7.07;4.40;;;20.00;78.30;;;;;;10790397;33;20063;-70
2023/09/29 03:43:15;;;;;;;5.82;3.25;;;20.00;78.50;;;;;;10790150;33;20012;-70
2023/09/29 03:49:19;;;;;;;6.87;3.87;;;20.00;78.50;;;;;;10790314;33;20017;-70
2023/09/29 03:55:21;;;;;;;5.43;3.35;;;19.80;78.50;;;;;;10789609;33;20020;-70
2023/09/29 04:01:25;;;;;;;4.72;3.37;;;19.80;78.70;;;;;;10790087;33;20323;-70
2023/09/29 04:07:27;;;;;;;6.28;4.22;;;19.80;78.70;;;;;;10790466;33;20017;-70
2023/09/29 04:13:29;;;;;;;7.97;4.20;;;19.80;78.70;;;;;;10789755;33;20021;-70
2023/09/29 04:19:32;;;;;;;4.60;4.07;;;19.70;78.70;;;;;;10788921;33;20046;-70
2023/09/29 04:25:34;;;;;;;5.07;3.40;;;19.70;79.00;;;;;;10788833;33;20016;-70
2023/09/29 04:31:36;;;;;;;7.25;3.80;;;19.70;79.00;;;;;;10788647;33;20013;-70
2023/09/29 04:37:40;;;;;;;7.57;3.65;;;19.70;79.00;;;;;;10788927;33;20028;-70
2023/09/29 04:43:44;;;;;;;5.72;4.03;;;19.70;79.00;;;;;;10788907;33;20412;-70
2023/09/29 04:49:46;;;;;;;5.50;3.60;;;19.60;79.00;;;;;;10787924;33;20017;-70
2023/09/29 04:55:48;;;;;;;4.87;3.62;;;19.50;79.10;;;;;;10789202;33;20020;-70
2023/09/29 05:01:51;;;;;;;5.65;3.55;;;19.40;79.20;;;;;;10788244;33;20182;-70
2023/09/29 05:07:53;;;;;;;6.57;3.37;;;19.40;79.30;;;;;;10786470;33;20036;-70
2023/09/29 05:13:55;;;;;;;4.20;3.22;;;19.30;79.30;;;;;;10788591;33;20056;-70
2023/09/29 05:19:58;;;;;;;4.50;3.55;;;19.30;79.30;;;;;;10788404;33;20039;-70
2023/09/29 05:26:04;;;;;;;5.07;3.78;;;19.30;79.40;;;;;;10787663;33;20016;-70
2023/09/29 05:32:09;;;;;;;5.62;4.50;;;19.30;79.40;;;;;;10787004;33;20020;-70
2023/09/29 05:38:14;;;;;;;5.65;3.17;;;19.30;79.40;;;;;;10785360;33;20040;-70
2023/09/29 05:44:17;;;;;;;5.65;3.62;;;19.30;79.40;;;;;;10786679;33;20035;-70
2023/09/29 05:50:19;;;;;;;5.32;3.45;;;19.30;79.40;;;;;;10786313;33;20021;-70
2023/09/29 05:56:41;;;;;;;5.05;3.42;;;19.30;79.30;;;;;;10786266;33;20047;-70
2023/09/29 06:02:46;;;;;;;6.22;4.75;;;19.30;79.20;;;;;;10787277;33;20035;-70
2023/09/29 06:08:49;;;;;;;5.37;3.78;;;19.30;79.30;;;;;;10793567;33;20046;-70
2023/09/29 06:14:51;;;;;;;5.12;4.10;;;19.30;79.20;;;;;;10792280;33;20021;-70
2023/09/29 06:20:54;;;;;;;6.60;4.55;;;19.20;79.00;;;;;;10790922;33;20031;-70
2023/09/29 06:27:01;;;;;;;5.47;4.03;;;19.30;79.00;;;;;;10792039;33;20047;-70
2023/09/29 06:33:04;;;;;;;6.87;3.30;;;19.40;78.90;;;;;;10792039;33;20020;-70
2023/09/29 06:39:06;;;;;;;4.62;3.42;;;19.50;78.80;;;;;;10792580;33;20405;-70
2023/09/29 06:45:09;;;;;;;4.85;3.22;;;19.70;78.70;;;;;;10791640;33;20020;-70
2023/09/29 06:51:11;;;;;;;11.82;2.97;;;19.80;78.50;;;;;;10913198;27;20362;-70
2023/09/29 06:57:13;;;;;;;5.22;2.97;;;19.90;78.50;;;;;;10928480;32;20011;-70
2023/09/29 07:03:15;;;;;;;5.10;3.30;;;20.00;78.40;;;;;;10946353;32;20393;-70
2023/09/29 07:09:17;;;;;;;6.40;4.03;;;20.10;78.50;;;;;;10945313;32;20451;-70
2023/09/29 07:15:19;;;;;;;4.60;3.00;;;20.20;78.40;;;;;;10940090;32;20031;-70
2023/09/29 07:21:21;;;;;;;6.28;3.87;;;20.30;78.10;;;;;;10945031;32;20045;-70
2023/09/29 07:27:25;;;;;;;11.80;2.75;;;20.50;77.70;;;;;;10944934;32;20015;-70
2023/09/29 07:33:27;;;;;;;5.65;3.35;;;20.60;77.20;;;;;;10923646;32;20023;-70
2023/09/29 07:39:29;;;;;;;6.68;4.10;;;20.80;76.80;;;;;;10930536;32;20030;-70
2023/09/29 07:45:34;;;;;;;6.78;3.67;;;20.80;76.30;;;;;;10943993;32;20349;-70
2023/09/29 07:51:38;;;;;;;10.35;4.45;;;21.00;75.90;;;;;;10807214;32;20469;-70
2023/09/29 07:57:40;;;;;;;4.87;2.78;;;21.10;76.30;;;;;;10789460;33;20012;-70
2023/09/29 08:03:43;;;;;;;5.55;3.53;;;21.30;76.30;;;;;;10788822;33;20086;-71
2023/09/29 08:09:48;;;;;;;8.32;3.20;;;21.40;75.90;;;;;;10784874;33;20028;-70
2023/09/29 08:15:51;;;;;;;5.60;3.45;;;21.50;75.50;;;;;;10772167;33;20032;-70
2023/09/29 08:21:54;;;;;;;5.55;2.67;;;21.70;75.20;;;;;;10776134;33;20058;-74
2023/09/29 08:27:57;;;;;;;6.03;3.67;;;21.80;75.10;;;;;;10788458;33;20044;-75
2023/09/29 08:33:59;;;;;;;5.43;3.40;;;21.90;74.70;;;;;;10783436;33;20331;-75
2023/09/29 08:40:02;;;;;;;4.82;3.12;;;22.00;74.30;;;;;;10788980;33;20023;-75
2023/09/29 08:46:05;;;;;;;6.12;3.17;;;22.20;73.50;;;;;;10787571;33;20391;-74
2023/09/29 08:52:10;;;;;;;4.20;2.67;;;22.30;73.10;;;;;;10787996;33;20046;-75
2023/09/29 08:58:12;;;;;;;5.20;3.40;;;22.50;72.90;;;;;;10788286;33;20435;-75
2023/09/29 09:04:14;;;;;;;7.18;3.47;;;22.70;72.10;;;;;;10787737;33;20016;-74
2023/09/29 09:10:17;;;;;;;6.32;3.35;;;22.80;72.60;;;;;;10787072;33;20047;-74
2023/09/29 09:16:19;;;;;;;6.80;3.80;;;23.00;71.80;;;;;;10787073;33;20033;-74
2023/09/29 09:22:24;;;;;;;8.50;3.05;;;23.10;70.50;;;;;;10787352;33;20051;-75
2023/09/29 09:28:30;;;;;;;5.12;3.05;;;23.20;69.80;;;;;;10787102;33;20063;-74
2023/09/29 09:34:34;;;;;;;11.70;4.03;;;23.30;69.40;;;;;;10773522;33;20054;-74
2023/09/29 09:40:36;;;;;;;13.15;3.42;;;23.50;69.20;;;;;;10799608;33;20322;-74
2023/09/29 09:46:40;;;;;;;5.50;3.28;;;23.70;68.20;;;;;;10800938;32;20024;-76
2023/09/29 09:52:44;;;;;;;4.28;2.60;;;23.80;67.00;;;;;;10793735;33;20292;-75
2023/09/29 09:58:49;;;;;;;7.05;3.62;;;23.90;66.50;;;;;;10793691;33;20021;-75
2023/09/29 10:04:52;;;;;;;3.95;2.72;;;24.00;65.40;;;;;;10792804;33;20312;-75
2023/09/29 10:11:13;;;;;;;4.10;2.50;;;24.10;65.20;;;;;;10791305;33;20033;-74
2023/09/29 10:17:15;;;;;;;5.45;2.70;;;24.30;64.10;;;;;;10790117;33;20024;-74
2023/09/29 10:23:18;;;;;;;4.93;2.53;;;24.30;63.70;;;;;;10792189;33;20074;-74
2023/09/29 10:29:25;;;;;;;5.15;2.83;;;24.60;62.90;;;;;;10774709;33;20032;-75
2023/09/29 10:35:28;;;;;;;7.25;2.83;;;24.70;61.70;;;;;;10792499;33;20025;-75
2023/09/29 10:41:32;;;;;;;6.97;2.95;;;24.90;62.10;;;;;;10792353;33;20050;-74
2023/09/29 10:47:35;;;;;;;3.90;2.20;;;25.00;61.60;;;;;;10790599;33;20449;-74
2023/09/29 10:53:40;;;;;;;4.50;1.67;;;25.30;60.80;;;;;;10791196;33;20012;-74
2023/09/29 10:59:49;;;;;;;6.45;2.45;;;25.60;59.60;;;;;;10791919;33;20021;-75
2023/09/29 11:05:53;;;;;;;3.65;2.75;;;25.80;58.80;;;;;;10791176;33;20024;-75
2023/09/29 11:11:55;;;;;;;6.00;2.80;;;26.10;58.30;;;;;;10790931;33;20005;-74
2023/09/29 11:17:58;;;;;;;5.28;2.60;;;26.30;58.40;;;;;;10788878;33;20343;-74
2023/09/29 11:24:11;;;;;;;4.53;2.75;;;26.60;57.60;;;;;;10790092;33;20047;-75
2023/09/29 11:30:13;;;;;;;14.23;3.62;;;26.70;57.10;;;;;;10790130;33;20024;-75
2023/09/29 11:36:17;;;;;;;5.40;2.45;;;26.80;56.60;;;;;;10771657;33;20028;-75
2023/09/29 11:42:19;;;;;;;6.85;3.35;;;26.90;56.20;;;;;;10788776;33;20036;-75
2023/09/29 11:48:22;;;;;;;3.47;2.25;;;27.00;56.60;;;;;;10789563;33;20041;-76
2023/09/29 11:54:45;;;;;;;3.53;2.40;;;26.90;57.10;;;;;;10789664;33;20043;-75
2023/09/29 12:00:47;;;;;;;5.78;3.15;;;26.90;55.30;;;;;;10789405;33;20484;-75
2023/09/29 12:06:49;;;;;;;5.20;2.90;;;26.80;54.50;;;;;;10789008;33;20051;-73
2023/09/29 12:12:52;;;;;;;3.67;2.58;;;26.80;54.10;;;;;;10788139;33;20070;-75
2023/09/29 12:18:55;;;;;;;5.30;2.92;;;26.70;53.90;;;;;;10789189;33;20028;-76
2023/09/29 12:24:58;;;;;;;4.05;2.50;;;26.70;55.00;;;;;;10789108;33;20054;-74
2023/09/29 12:31:00;;;;;;;6.47;2.80;;;26.60;54.40;;;;;;10788632;33;20330;-75
2023/09/29 12:37:02;;;;;;;3.33;2.12;;;26.40;54.60;;;;;;10789011;33;20016;-76
2023/09/29 12:43:12;;;;;;;5.53;3.10;;;26.40;54.40;;;;;;10788869;33;20047;-74
2023/09/29 12:49:14;;;;;;;6.80;2.83;;;26.40;54.20;;;;;;10788347;33;20024;-74
2023/09/29 12:55:16;;;;;;;4.75;2.75;;;26.40;54.10;;;;;;10788521;33;20062;-73
2023/09/29 13:01:18;;;;;;;3.72;2.20;;;26.30;54.80;;;;;;10783797;33;20047;-75
2023/09/29 13:07:20;;;;;;;4.90;2.65;;;26.30;54.10;;;;;;10776409;33;20406;-75
2023/09/29 13:13:46;;;;;;;4.87;2.55;;;26.30;53.80;;;;;;10786449;33;20342;-75
2023/09/29 13:19:49;;;;;;;4.07;2.47;;;26.40;53.50;;;;;;10787284;33;20054;-76
2023/09/29 13:25:51;;;;;;;4.22;2.62;;;26.40;52.90;;;;;;10787231;33;20040;-75
2023/09/29 13:31:53;;;;;;;5.03;2.60;;;26.40;53.00;;;;;;10787739;33;20016;-74
2023/09/29 13:37:57;;;;;;;2.62;2.17;;;26.50;53.10;;;;;;10788097;33;20013;-76
2023/09/29 13:44:00;;;;;;;6.57;2.62;;;26.50;52.40;;;;;;10785584;33;20028;-76
2023/09/29 13:50:04;;;;;;;2.87;2.00;;;26.50;51.90;;;;;;10783116;33;20047;-75
2023/09/29 13:56:08;;;;;;;4.65;2.00;;;26.60;51.70;;;;;;10786662;33;20044;-75
2023/09/29 14:02:09;;;;;;;4.80;3.00;;;26.60;51.30;;;;;;10788052;33;20047;-74
2023/09/29 14:08:12;;;;;;;7.50;3.10;;;26.70;50.90;;;;;;10787500;33;20025;-75
2023/09/29 14:14:48;;;;;;;6.62;2.60;;;26.70;50.90;;;;;;10786273;33;20039;-74
2023/09/29 14:20:51;;;;;;;3.90;2.22;;;26.80;50.70;;;;;;10923960;32;20455;-75
2023/09/29 14:26:53;;;;;;;7.80;2.45;;;26.90;50.70;;;;;;10942600;32;20037;-75
2023/09/29 14:32:55;;;;;;;4.43;1.92;;;27.00;50.50;;;;;;10927325;32;20317;-72
2023/09/29 14:38:57;;;;;;;4.37;2.47;;;27.00;50.00;;;;;;10943411;32;20317;-71
2023/09/29 14:45:00;;;;;;;4.43;2.62;;;27.10;49.80;;;;;;10943357;32;20014;-71
2023/09/29 14:51:06;;;;;;;3.95;2.15;;;27.20;49.70;;;;;;10914479;27;20047;-71
2023/09/29 14:57:08;;;;;;;4.12;2.03;;;27.30;49.50;;;;;;10799598;32;20044;-71
2023/09/29 15:03:12;;;;;;;2.70;1.90;;;27.30;49.30;;;;;;10741695;33;20053;-71
2023/09/29 15:09:14;;;;;;;3.05;2.15;;;27.30;49.40;;;;;;10755017;33;20020;-70
2023/09/29 15:15:16;;;;;;;4.30;2.22;;;27.30;49.60;;;;;;10754820;33;20028;-70
2023/09/29 15:21:19;;;;;;;3.72;1.85;;;27.30;49.60;;;;;;10753892;33;20020;-70
2023/09/29 15:27:21;;;;;;;3.78;2.25;;;27.50;49.50;;;;;;10742141;33;20304;-71
2023/09/29 15:33:24;;;;;;;4.82;2.40;;;28.50;48.10;;;;;;10754522;33;20438;-71
2023/09/29 15:39:26;;;;;;;3.28;2.35;;;29.20;47.20;;;;;;10753653;33;20020;-72
2023/09/29 15:45:28;;;;;;;11.70;2.53;;;29.40;47.10;;;;;;10753924;33;20047;-71
2023/09/29 15:51:30;;;;;;;2.90;2.20;;;29.20;47.70;;;;;;10753426;33;20025;-71
2023/09/29 15:57:33;;;;;;;2.50;1.92;;;28.60;48.80;;;;;;10753626;33;20421;-71
2023/09/29 16:03:35;;;;;;;13.98;3.25;;;28.20;49.70;;;;;;10739328;33;20045;-70
2023/09/29 16:09:37;;;;;;;3.72;2.30;;;27.90;50.40;;;;;;10736742;33;20110;-70
2023/09/29 16:15:40;;;;;;;2.75;1.70;;;28.30;49.90;;;;;;10739093;33;20033;-70
2023/09/29 16:21:42;;;;;;;6.87;2.95;;;29.30;48.80;;;;;;10739591;33;20028;-71
2023/09/29 16:27:44;;;;;;;5.10;2.12;;;29.10;49.20;;;;;;10752082;33;20029;-70
2023/09/29 16:33:47;;;;;;;3.08;1.85;;;28.10;50.90;;;;;;10753234;33;20021;-70
2023/09/29 16:39:49;;;;;;;4.12;2.15;;;27.30;52.40;;;;;;10752118;33;20415;-70
2023/09/29 16:45:52;;;;;;;8.40;3.72;;;26.80;53.20;;;;;;10748704;33;20028;-70
2023/09/29 16:51:54;;;;;;;27.37;6.50;;;26.40;54.00;;;;;;10725160;32;20048;-71
2023/09/29 16:57:57;;;;;;;10.82;3.28;;;26.00;54.50;;;;;;10751917;33;20021;-71
2023/09/29 17:03:59;;;;;;;23.45;2.65;;;25.70;55.00;;;;;;10751033;33;20051;-71
2023/09/29 17:10:03;;;;;;;7.20;2.33;;;25.50;55.30;;;;;;10750893;33;20020;-70
2023/09/29 17:16:06;;;;;;;10.85;3.72;;;25.30;55.60;;;;;;10751551;33;20025;-70
2023/09/29 17:22:09;;;;;;;9.15;3.42;;;25.10;56.00;;;;;;10752051;33;20044;-70
2023/09/29 17:28:15;;;;;;;12.73;2.67;;;24.90;56.20;;;;;;10739035;33;20052;-70
2023/09/29 17:34:17;;;;;;;5.03;2.15;;;24.80;56.60;;;;;;10720581;33;20078;-70
2023/09/29 17:40:20;;;;;;;15.77;4.35;;;24.60;56.80;;;;;;10702100;32;20041;-70
2023/09/29 17:46:22;;;;;;;4.65;3.10;;;24.50;57.10;;;;;;10713931;33;20029;-70
2023/09/29 17:52:25;;;;;;;8.90;3.30;;;24.30;57.30;;;;;;10714089;33;20029;-70
2023/09/29 17:58:28;;;;;;;3.30;1.80;;;24.20;57.60;;;;;;10703350;33;20075;-72
2023/09/29 18:04:30;;;;;;;14.48;3.33;;;24.10;57.80;;;;;;10720641;33;20041;-71
2023/09/29 18:10:33;;;;;;;7.55;2.97;;;24.00;58.50;;;;;;10703303;32;20033;-70
2023/09/29 18:16:35;;;;;;;6.90;2.78;;;23.90;58.60;;;;;;10701775;33;20045;-71
2023/09/29 18:22:39;;;;;;;6.40;2.50;;;23.80;58.80;;;;;;10719717;33;20386;-71
2023/09/29 18:28:42;;;;;;;3.95;2.87;;;23.80;58.90;;;;;;10705753;33;20036;-71
2023/09/29 18:34:44;;;;;;;8.10;3.22;;;23.70;59.20;;;;;;10706783;32;20053;-71
2023/09/29 18:40:46;;;;;;;13.45;3.62;;;23.70;59.70;;;;;;10718970;33;20369;-71
2023/09/29 18:46:48;;;;;;;4.65;3.25;;;23.60;60.30;;;;;;10719494;33;20323;-70
2023/09/29 18:52:51;;;;;;;5.85;2.87;;;23.50;60.50;;;;;;10718236;33;20021;-70
2023/09/29 18:58:53;;;;;;;7.65;5.37;;;23.40;61.10;;;;;;10718067;33;20092;-71
2023/09/29 19:04:55;;;;;;;5.05;3.45;;;23.30;61.60;;;;;;10716801;33;20041;-70
2023/09/29 19:11:00;;;;;;;12.77;4.07;;;23.30;61.90;;;;;;10711859;33;20191;-71
2023/09/29 19:17:03;;;;;;;8.43;4.80;;;23.20;62.90;;;;;;10705815;32;20057;-70
2023/09/29 19:23:05;;;;;;;7.60;4.28;;;23.20;63.20;;;;;;10718812;33;20051;-70
2023/09/29 19:29:07;;;;;;;13.15;4.53;;;23.10;63.60;;;;;;10718631;33;20544;-70
2023/09/29 19:35:10;;;;;;;16.75;8.35;;;23.00;63.70;;;;;;10703657;33;20453;-70
2023/09/29 19:41:13;;;;;;;12.35;7.45;;;22.90;63.60;;;;;;10716750;33;20037;-71
2023/09/29 19:47:15;;;;;;;10.25;6.82;;;22.80;64.10;;;;;;10715897;33;20056;-71
2023/09/29 19:53:17;;;;;;;9.80;6.07;;;22.70;65.10;;;;;;10713571;33;20083;-70
2023/09/29 19:59:20;;;;;;;10.38;6.22;;;22.60;65.90;;;;;;10716348;33;20028;-70
2023/09/29 20:05:22;;;;;;;14.70;6.03;;;22.60;65.80;;;;;;10717130;33;20324;-70
2023/09/29 20:11:25;;;;;;;11.32;6.35;;;22.50;65.90;;;;;;10715982;33;20048;-70
2023/09/29 20:17:27;;;;;;;9.77;5.68;;;22.30;66.00;;;;;;10715867;33;20032;-70
2023/09/29 20:23:29;;;;;;;10.82;6.55;;;22.30;66.20;;;;;;10715266;33;20347;-70
2023/09/29 20:29:31;;;;;;;11.10;6.40;;;22.30;66.50;;;;;;10714360;33;20051;-70
2023/09/29 20:35:34;;;;;;;9.60;5.53;;;22.20;66.70;;;;;;10715374;33;20022;-70
2023/09/29 20:41:36;;;;;;;8.52;4.90;;;22.20;67.10;;;;;;10715514;33;20085;-70
2023/09/29 20:47:41;;;;;;;10.45;4.55;;;22.20;67.20;;;;;;10715233;33;20043;-70
2023/09/29 20:53:43;;;;;;;10.25;4.78;;;22.10;67.30;;;;;;10716631;33;20399;-70
2023/09/29 20:59:45;;;;;;;11.52;6.18;;;22.00;67.90;;;;;;10715724;33;20033;-70
2023/09/29 21:05:47;;;;;;;13.48;8.30;;;22.00;69.70;;;;;;10715567;33;20386;-70
2023/09/29 21:11:49;;;;;;;13.60;8.38;;;21.90;70.20;;;;;;10703319;33;20020;-70
2023/09/29 21:17:52;;;;;;;9.23;6.20;;;21.90;70.00;;;;;;10715072;33;20053;-70
2023/09/29 21:23:54;;;;;;;12.20;7.35;;;21.80;70.00;;;;;;10715861;33;20029;-70
2023/09/29 21:29:56;;;;;;;10.20;6.97;;;21.80;70.20;;;;;;10714492;33;20175;-70
2023/09/29 21:35:58;;;;;;;14.90;7.85;;;21.80;70.20;;;;;;10719471;33;20016;-70
2023/09/29 21:42:01;;;;;;;9.52;7.05;;;21.70;70.40;;;;;;10721287;33;20026;-70
2023/09/29 21:48:03;;;;;;;8.63;5.85;;;21.60;70.40;;;;;;10721431;33;20025;-70
2023/09/29 21:54:07;;;;;;;15.02;8.90;;;21.50;70.70;;;;;;10708753;32;20071;-70
2023/09/29 22:00:16;;;;;;;7.87;5.97;;;21.50;70.80;;;;;;10720691;33;20028;-70
2023/09/29 22:06:19;;;;;;;11.38;7.05;;;21.50;70.90;;;;;;10707832;32;20069;-70
2023/09/29 22:12:21;;;;;;;13.52;6.30;;;21.40;71.10;;;;;;10706496;33;20037;-70
2023/09/29 22:18:23;;;;;;;6.10;4.65;;;21.50;71.60;;;;;;10720341;33;20040;-70
2023/09/29 22:24:28;;;;;;;9.75;5.90;;;21.40;71.70;;;;;;10719646;33;20025;-70
2023/09/29 22:30:31;;;;;;;8.10;5.70;;;21.40;72.10;;;;;;10719340;33;20025;-70
2023/09/29 22:36:33;;;;;;;9.57;5.80;;;21.40;72.70;;;;;;10719077;33;20026;-70
2023/09/29 22:43:11;;;;;;;8.57;6.25;;;21.50;72.60;;;;;;10720025;33;20033;-70
2023/09/29 22:49:13;;;;;;;12.20;7.07;;;21.40;72.70;;;;;;10624426;27;7417591;-69
2023/09/29 22:55:15;;;;;;;11.43;5.75;;;21.30;72.90;;;;;;10984565;32;20416;-70
2023/09/29 23:01:17;;;;;;;6.60;4.95;;;21.30;72.90;;;;;;10985049;32;20045;-70
2023/09/29 23:07:20;;;;;;;10.10;5.60;;;21.10;73.00;;;;;;10983702;32;20019;-70
2023/09/29 23:13:23;;;;;;;8.40;5.87;;;21.00;73.30;;;;;;10981353;32;20027;-70
2023/09/29 23:19:27;;;;;;;8.70;6.80;;;21.00;73.80;;;;;;10983164;32;20023;-70
2023/09/29 23:25:29;;;;;;;5.80;3.90;;;21.00;74.90;;;;;;10983524;32;20046;-70
2023/09/29 23:31:31;;;;;;;10.15;7.12;;;20.90;74.80;;;;;;10969049;32;20340;-69
2023/09/29 23:37:33;;;;;;;7.70;5.37;;;20.90;75.30;;;;;;10983109;32;20348;-70
2023/09/29 23:43:35;;;;;;;9.48;5.45;;;20.80;75.00;;;;;;10965293;32;20385;-70
2023/09/29 23:49:37;;;;;;;12.32;6.97;;;20.80;75.20;;;;;;10968668;32;20022;-69
2023/09/29 23:55:39;;;;;;;7.57;4.70;;;20.80;75.20;;;;;;10981435;32;20050;-70
